KAUG/AUG METAR and TAF weather

Enter ICAO airport designator
Station Type Date Time Source
KAUG METAR 2020/08/14 16:53 UTC NOAA

KAUG 141653Z AUTO 32010KT 270V350 10SM CLR 29/12 A3009 RMK AO2 SLP188 T02890117


Station Type Date Time Source
KAUG Decoded METAR 2020/08/14 16:53 UTC NOAA

AUGUSTA STATE AIRPORT, ME, United States (KAUG) 44-19N 069-48W 109M
Aug 14, 2020 - 12:53 PM EDT / 2020.08.14 1653 UTC
Wind: from the NW (320 degrees) at 12 MPH (10 KT) (direction variable):0
Visibility: 10 mile(s):0
Sky conditions: clear
Temperature: 84.0 F (28.9 C)
Dew Point: 53.1 F (11.7 C)
Relative Humidity: 34%
Pressure (altimeter): 30.09 in. Hg (1018 hPa)
ob: KAUG 141653Z AUTO 32010KT 270V350 10SM CLR 29/12 A3009 RMK AO2 SLP188 T02890117
cycle: 17

Station Type Date Time Source
KAUG TAF 2020/08/14 12:24 UTC NOAA

TAF KAUG 141121Z 1412/1512 VRB03KT P6SM SCT250
FM141400 01006KT P6SM SCT250

Example: see airport list